sensor_id;sensor_type;location;lat;lon;timestamp;P1;durP1;ratioP1;P2;durP2;ratioP2
20393;SDS011;10356;50.544;9.642;2022-09-06T00:00:36;4.95;;;2.45;;
20393;SDS011;10356;50.544;9.642;2022-09-06T00:03:03;3.42;;;2.28;;
20393;SDS011;10356;50.544;9.642;2022-09-06T00:05:30;5.05;;;2.47;;
20393;SDS011;10356;50.544;9.642;2022-09-06T00:07:57;10.50;;;2.78;;
20393;SDS011;10356;50.544;9.642;2022-09-06T00:10:26;9.00;;;2.33;;
20393;SDS011;10356;50.544;9.642;2022-09-06T00:12:53;9.88;;;3.13;;
20393;SDS011;10356;50.544;9.642;2022-09-06T00:15:20;9.65;;;3.20;;
20393;SDS011;10356;50.544;9.642;2022-09-06T00:17:47;8.48;;;2.65;;
20393;SDS011;10356;50.544;9.642;2022-09-06T00:20:15;12.00;;;2.92;;
20393;SDS011;10356;50.544;9.642;2022-09-06T00:22:42;8.95;;;2.97;;
20393;SDS011;10356;50.544;9.642;2022-09-06T00:25:09;9.07;;;3.25;;
20393;SDS011;10356;50.544;9.642;2022-09-06T00:27:37;7.75;;;2.50;;
20393;SDS011;10356;50.544;9.642;2022-09-06T00:30:04;8.18;;;2.72;;
20393;SDS011;10356;50.544;9.642;2022-09-06T00:32:31;5.57;;;2.53;;
20393;SDS011;10356;50.544;9.642;2022-09-06T00:34:58;4.40;;;2.72;;
20393;SDS011;10356;50.544;9.642;2022-09-06T00:37:24;6.47;;;2.60;;
20393;SDS011;10356;50.544;9.642;2022-09-06T00:39:51;10.93;;;2.88;;
20393;SDS011;10356;50.544;9.642;2022-09-06T00:42:17;6.95;;;2.92;;
20393;SDS011;10356;50.544;9.642;2022-09-06T00:44:45;6.55;;;2.60;;
20393;SDS011;10356;50.544;9.642;2022-09-06T00:47:12;7.20;;;2.70;;
20393;SDS011;10356;50.544;9.642;2022-09-06T00:49:40;8.45;;;3.22;;
20393;SDS011;10356;50.544;9.642;2022-09-06T00:52:11;6.70;;;2.38;;
20393;SDS011;10356;50.544;9.642;2022-09-06T00:54:40;7.20;;;3.13;;
20393;SDS011;10356;50.544;9.642;2022-09-06T00:57:07;8.30;;;3.30;;
20393;SDS011;10356;50.544;9.642;2022-09-06T00:59:35;9.23;;;3.05;;
20393;SDS011;10356;50.544;9.642;2022-09-06T01:02:04;8.73;;;2.70;;
20393;SDS011;10356;50.544;9.642;2022-09-06T01:04:33;8.07;;;3.05;;
20393;SDS011;10356;50.544;9.642;2022-09-06T01:07:05;6.72;;;3.05;;
20393;SDS011;10356;50.544;9.642;2022-09-06T01:09:46;8.18;;;2.85;;
20393;SDS011;10356;50.544;9.642;2022-09-06T01:12:29;5.40;;;2.88;;
20393;SDS011;10356;50.544;9.642;2022-09-06T01:15:14;6.55;;;2.83;;
20393;SDS011;10356;50.544;9.642;2022-09-06T01:17:54;5.07;;;3.13;;
20393;SDS011;10356;50.544;9.642;2022-09-06T01:20:40;9.07;;;3.08;;
20393;SDS011;10356;50.544;9.642;2022-09-06T01:27:03;8.20;;;2.85;;
20393;SDS011;10356;50.544;9.642;2022-09-06T01:29:46;3.80;;;2.38;;
20393;SDS011;10356;50.544;9.642;2022-09-06T01:32:17;4.18;;;2.30;;
20393;SDS011;10356;50.544;9.642;2022-09-06T01:34:49;8.43;;;3.10;;
20393;SDS011;10356;50.544;9.642;2022-09-06T01:37:21;7.38;;;2.97;;
20393;SDS011;10356;50.544;9.642;2022-09-06T01:39:48;8.15;;;2.97;;
20393;SDS011;10356;50.544;9.642;2022-09-06T01:42:16;5.55;;;3.10;;
20393;SDS011;10356;50.544;9.642;2022-09-06T01:44:49;5.30;;;2.80;;
20393;SDS011;10356;50.544;9.642;2022-09-06T01:47:21;5.90;;;2.65;;
20393;SDS011;10356;50.544;9.642;2022-09-06T01:50:01;5.50;;;2.85;;
20393;SDS011;10356;50.544;9.642;2022-09-06T01:52:43;4.65;;;2.90;;
20393;SDS011;10356;50.544;9.642;2022-09-06T01:55:20;9.75;;;3.15;;
20393;SDS011;10356;50.544;9.642;2022-09-06T01:58:01;6.45;;;3.30;;
20393;SDS011;10356;50.544;9.642;2022-09-06T02:00:45;9.20;;;3.22;;
20393;SDS011;10356;50.544;9.642;2022-09-06T02:03:22;3.90;;;2.72;;
20393;SDS011;10356;50.544;9.642;2022-09-06T02:05:53;4.78;;;2.55;;
20393;SDS011;10356;50.544;9.642;2022-09-06T02:08:25;4.95;;;3.15;;
20393;SDS011;10356;50.544;9.642;2022-09-06T02:10:56;4.57;;;2.45;;
20393;SDS011;10356;50.544;9.642;2022-09-06T02:13:26;6.80;;;3.10;;
20393;SDS011;10356;50.544;9.642;2022-09-06T02:15:59;7.32;;;3.13;;
20393;SDS011;10356;50.544;9.642;2022-09-06T02:18:28;5.45;;;3.40;;
20393;SDS011;10356;50.544;9.642;2022-09-06T02:20:58;8.93;;;3.00;;
20393;SDS011;10356;50.544;9.642;2022-09-06T02:23:28;6.68;;;3.08;;
20393;SDS011;10356;50.544;9.642;2022-09-06T02:26:00;4.93;;;3.00;;
20393;SDS011;10356;50.544;9.642;2022-09-06T02:28:30;6.03;;;3.35;;
20393;SDS011;10356;50.544;9.642;2022-09-06T02:31:00;10.02;;;3.60;;
20393;SDS011;10356;50.544;9.642;2022-09-06T02:33:30;5.47;;;3.15;;
20393;SDS011;10356;50.544;9.642;2022-09-06T02:36:01;4.03;;;3.35;;
20393;SDS011;10356;50.544;9.642;2022-09-06T02:38:30;4.88;;;2.75;;
20393;SDS011;10356;50.544;9.642;2022-09-06T02:40:59;4.25;;;2.88;;
20393;SDS011;10356;50.544;9.642;2022-09-06T02:43:26;4.95;;;3.20;;
20393;SDS011;10356;50.544;9.642;2022-09-06T02:45:52;4.32;;;2.92;;
20393;SDS011;10356;50.544;9.642;2022-09-06T02:48:20;5.82;;;3.10;;
20393;SDS011;10356;50.544;9.642;2022-09-06T02:50:47;7.00;;;2.53;;
20393;SDS011;10356;50.544;9.642;2022-09-06T02:53:13;3.92;;;2.70;;
20393;SDS011;10356;50.544;9.642;2022-09-06T02:55:40;3.97;;;3.30;;
20393;SDS011;10356;50.544;9.642;2022-09-06T02:58:08;5.22;;;2.90;;
20393;SDS011;10356;50.544;9.642;2022-09-06T03:00:36;4.63;;;2.88;;
20393;SDS011;10356;50.544;9.642;2022-09-06T03:03:03;3.30;;;2.80;;
20393;SDS011;10356;50.544;9.642;2022-09-06T03:05:31;5.85;;;3.22;;
20393;SDS011;10356;50.544;9.642;2022-09-06T03:07:58;6.10;;;2.88;;
20393;SDS011;10356;50.544;9.642;2022-09-06T03:10:24;5.60;;;3.20;;
20393;SDS011;10356;50.544;9.642;2022-09-06T03:12:51;4.85;;;3.10;;
20393;SDS011;10356;50.544;9.642;2022-09-06T03:15:18;5.60;;;3.28;;
20393;SDS011;10356;50.544;9.642;2022-09-06T03:17:44;4.80;;;3.40;;
20393;SDS011;10356;50.544;9.642;2022-09-06T03:20:11;6.55;;;3.17;;
20393;SDS011;10356;50.544;9.642;2022-09-06T03:22:39;6.35;;;3.05;;
20393;SDS011;10356;50.544;9.642;2022-09-06T03:25:07;4.40;;;3.08;;
20393;SDS011;10356;50.544;9.642;2022-09-06T03:27:35;6.13;;;2.75;;
20393;SDS011;10356;50.544;9.642;2022-09-06T03:30:02;6.57;;;3.05;;
20393;SDS011;10356;50.544;9.642;2022-09-06T03:32:30;5.30;;;3.30;;
20393;SDS011;10356;50.544;9.642;2022-09-06T03:34:56;4.75;;;3.00;;
20393;SDS011;10356;50.544;9.642;2022-09-06T03:37:23;3.80;;;3.10;;
20393;SDS011;10356;50.544;9.642;2022-09-06T03:39:51;5.65;;;3.42;;
20393;SDS011;10356;50.544;9.642;2022-09-06T03:42:17;6.15;;;3.38;;
20393;SDS011;10356;50.544;9.642;2022-09-06T03:44:44;12.68;;;4.05;;
20393;SDS011;10356;50.544;9.642;2022-09-06T03:47:10;4.32;;;3.50;;
20393;SDS011;10356;50.544;9.642;2022-09-06T03:49:37;5.50;;;3.95;;
20393;SDS011;10356;50.544;9.642;2022-09-06T03:52:03;6.07;;;3.35;;
20393;SDS011;10356;50.544;9.642;2022-09-06T03:54:30;4.13;;;3.05;;
20393;SDS011;10356;50.544;9.642;2022-09-06T03:56:58;5.93;;;3.20;;
20393;SDS011;10356;50.544;9.642;2022-09-06T03:59:24;5.07;;;3.20;;
20393;SDS011;10356;50.544;9.642;2022-09-06T04:01:51;5.82;;;3.45;;
20393;SDS011;10356;50.544;9.642;2022-09-06T04:04:17;5.50;;;3.35;;
20393;SDS011;10356;50.544;9.642;2022-09-06T04:06:44;5.68;;;3.10;;
20393;SDS011;10356;50.544;9.642;2022-09-06T04:09:10;7.18;;;3.50;;
20393;SDS011;10356;50.544;9.642;2022-09-06T04:11:37;8.75;;;3.50;;
20393;SDS011;10356;50.544;9.642;2022-09-06T04:14:05;10.15;;;4.03;;
20393;SDS011;10356;50.544;9.642;2022-09-06T04:16:31;8.30;;;3.53;;
20393;SDS011;10356;50.544;9.642;2022-09-06T04:18:58;7.22;;;3.63;;
20393;SDS011;10356;50.544;9.642;2022-09-06T04:21:26;6.25;;;3.65;;
20393;SDS011;10356;50.544;9.642;2022-09-06T04:23:52;5.47;;;3.72;;
20393;SDS011;10356;50.544;9.642;2022-09-06T04:26:19;6.22;;;4.05;;
20393;SDS011;10356;50.544;9.642;2022-09-06T04:28:45;9.43;;;4.00;;
20393;SDS011;10356;50.544;9.642;2022-09-06T04:31:13;4.75;;;3.80;;
20393;SDS011;10356;50.544;9.642;2022-09-06T04:33:40;4.00;;;3.47;;
20393;SDS011;10356;50.544;9.642;2022-09-06T04:36:07;4.40;;;3.47;;
20393;SDS011;10356;50.544;9.642;2022-09-06T04:38:36;9.57;;;3.53;;
20393;SDS011;10356;50.544;9.642;2022-09-06T04:41:04;5.90;;;3.38;;
20393;SDS011;10356;50.544;9.642;2022-09-06T04:43:32;6.63;;;3.55;;
20393;SDS011;10356;50.544;9.642;2022-09-06T04:46:01;8.55;;;3.72;;
20393;SDS011;10356;50.544;9.642;2022-09-06T04:48:30;5.07;;;3.80;;
20393;SDS011;10356;50.544;9.642;2022-09-06T04:50:57;5.75;;;3.53;;
20393;SDS011;10356;50.544;9.642;2022-09-06T04:53:23;9.98;;;4.22;;
20393;SDS011;10356;50.544;9.642;2022-09-06T04:55:50;7.22;;;3.92;;
20393;SDS011;10356;50.544;9.642;2022-09-06T04:58:17;6.45;;;3.60;;
20393;SDS011;10356;50.544;9.642;2022-09-06T05:00:43;6.47;;;3.92;;
20393;SDS011;10356;50.544;9.642;2022-09-06T05:03:10;13.30;;;3.78;;
20393;SDS011;10356;50.544;9.642;2022-09-06T05:05:37;7.57;;;3.53;;
20393;SDS011;10356;50.544;9.642;2022-09-06T05:08:04;5.35;;;3.47;;
20393;SDS011;10356;50.544;9.642;2022-09-06T05:10:31;7.38;;;3.40;;
20393;SDS011;10356;50.544;9.642;2022-09-06T05:12:58;7.95;;;4.03;;
20393;SDS011;10356;50.544;9.642;2022-09-06T05:15:24;8.35;;;3.70;;
20393;SDS011;10356;50.544;9.642;2022-09-06T05:17:51;6.85;;;3.83;;
20393;SDS011;10356;50.544;9.642;2022-09-06T05:20:17;11.23;;;3.92;;
20393;SDS011;10356;50.544;9.642;2022-09-06T05:22:51;9.10;;;4.03;;
20393;SDS011;10356;50.544;9.642;2022-09-06T05:25:19;7.68;;;3.83;;
20393;SDS011;10356;50.544;9.642;2022-09-06T05:27:45;6.78;;;3.30;;
20393;SDS011;10356;50.544;9.642;2022-09-06T05:30:12;5.55;;;3.55;;
20393;SDS011;10356;50.544;9.642;2022-09-06T05:32:39;7.43;;;3.50;;
20393;SDS011;10356;50.544;9.642;2022-09-06T05:35:05;8.25;;;3.90;;
20393;SDS011;10356;50.544;9.642;2022-09-06T05:37:32;4.75;;;3.33;;
20393;SDS011;10356;50.544;9.642;2022-09-06T05:40:00;6.13;;;3.85;;
20393;SDS011;10356;50.544;9.642;2022-09-06T05:42:27;10.13;;;3.20;;
20393;SDS011;10356;50.544;9.642;2022-09-06T05:44:54;10.50;;;3.70;;
20393;SDS011;10356;50.544;9.642;2022-09-06T05:47:20;21.83;;;4.28;;
20393;SDS011;10356;50.544;9.642;2022-09-06T05:49:47;30.98;;;4.95;;
20393;SDS011;10356;50.544;9.642;2022-09-06T05:52:13;22.55;;;5.03;;
20393;SDS011;10356;50.544;9.642;2022-09-06T05:54:41;19.17;;;4.22;;
20393;SDS011;10356;50.544;9.642;2022-09-06T05:57:09;16.58;;;4.32;;
20393;SDS011;10356;50.544;9.642;2022-09-06T05:59:35;12.05;;;4.00;;
20393;SDS011;10356;50.544;9.642;2022-09-06T06:02:02;13.20;;;4.10;;
20393;SDS011;10356;50.544;9.642;2022-09-06T06:04:28;9.57;;;3.67;;
20393;SDS011;10356;50.544;9.642;2022-09-06T06:06:55;8.98;;;3.88;;
20393;SDS011;10356;50.544;9.642;2022-09-06T06:09:21;10.95;;;4.40;;
20393;SDS011;10356;50.544;9.642;2022-09-06T06:11:48;8.50;;;4.07;;
20393;SDS011;10356;50.544;9.642;2022-09-06T06:14:16;9.50;;;4.35;;
20393;SDS011;10356;50.544;9.642;2022-09-06T06:16:42;7.50;;;4.00;;
20393;SDS011;10356;50.544;9.642;2022-09-06T06:19:09;12.52;;;4.03;;
20393;SDS011;10356;50.544;9.642;2022-09-06T06:21:35;8.70;;;4.20;;
20393;SDS011;10356;50.544;9.642;2022-09-06T06:24:03;7.18;;;3.63;;
20393;SDS011;10356;50.544;9.642;2022-09-06T06:26:31;9.88;;;3.50;;
20393;SDS011;10356;50.544;9.642;2022-09-06T06:28:59;8.55;;;3.88;;
20393;SDS011;10356;50.544;9.642;2022-09-06T06:31:28;9.50;;;3.92;;
20393;SDS011;10356;50.544;9.642;2022-09-06T06:33:55;9.43;;;3.90;;
20393;SDS011;10356;50.544;9.642;2022-09-06T06:36:22;8.80;;;4.35;;
20393;SDS011;10356;50.544;9.642;2022-09-06T06:38:51;9.43;;;3.83;;
20393;SDS011;10356;50.544;9.642;2022-09-06T06:41:20;9.38;;;4.10;;
20393;SDS011;10356;50.544;9.642;2022-09-06T06:43:50;7.72;;;3.55;;
20393;SDS011;10356;50.544;9.642;2022-09-06T06:46:17;9.55;;;3.80;;
20393;SDS011;10356;50.544;9.642;2022-09-06T06:48:46;7.15;;;3.45;;
20393;SDS011;10356;50.544;9.642;2022-09-06T06:51:14;8.63;;;3.88;;
20393;SDS011;10356;50.544;9.642;2022-09-06T06:53:41;8.30;;;3.95;;
20393;SDS011;10356;50.544;9.642;2022-09-06T06:56:12;10.93;;;3.92;;
20393;SDS011;10356;50.544;9.642;2022-09-06T06:58:40;14.48;;;5.00;;
20393;SDS011;10356;50.544;9.642;2022-09-06T07:01:07;8.32;;;4.28;;
20393;SDS011;10356;50.544;9.642;2022-09-06T07:03:34;10.32;;;3.47;;
20393;SDS011;10356;50.544;9.642;2022-09-06T07:06:03;9.32;;;4.20;;
20393;SDS011;10356;50.544;9.642;2022-09-06T07:08:30;7.32;;;4.25;;
20393;SDS011;10356;50.544;9.642;2022-09-06T07:10:57;5.60;;;4.07;;
20393;SDS011;10356;50.544;9.642;2022-09-06T07:13:24;7.72;;;4.10;;
20393;SDS011;10356;50.544;9.642;2022-09-06T07:15:50;6.50;;;3.92;;
20393;SDS011;10356;50.544;9.642;2022-09-06T07:18:17;7.30;;;3.70;;
20393;SDS011;10356;50.544;9.642;2022-09-06T07:20:44;5.50;;;3.85;;
20393;SDS011;10356;50.544;9.642;2022-09-06T07:23:11;9.27;;;4.10;;
20393;SDS011;10356;50.544;9.642;2022-09-06T07:25:38;9.50;;;3.88;;
20393;SDS011;10356;50.544;9.642;2022-09-06T07:28:04;7.50;;;3.80;;
20393;SDS011;10356;50.544;9.642;2022-09-06T07:30:32;9.10;;;3.80;;
20393;SDS011;10356;50.544;9.642;2022-09-06T07:33:01;10.90;;;4.05;;
20393;SDS011;10356;50.544;9.642;2022-09-06T07:35:29;27.48;;;5.63;;
20393;SDS011;10356;50.544;9.642;2022-09-06T07:37:56;41.72;;;6.22;;
20393;SDS011;10356;50.544;9.642;2022-09-06T07:40:26;29.48;;;5.72;;
20393;SDS011;10356;50.544;9.642;2022-09-06T07:42:55;30.70;;;6.28;;
20393;SDS011;10356;50.544;9.642;2022-09-06T07:45:22;27.05;;;6.38;;
20393;SDS011;10356;50.544;9.642;2022-09-06T07:47:52;16.90;;;5.78;;
20393;SDS011;10356;50.544;9.642;2022-09-06T07:50:19;17.58;;;5.10;;
20393;SDS011;10356;50.544;9.642;2022-09-06T07:52:45;15.43;;;6.00;;
20393;SDS011;10356;50.544;9.642;2022-09-06T07:55:12;9.65;;;5.65;;
20393;SDS011;10356;50.544;9.642;2022-09-06T07:57:40;14.00;;;5.55;;
20393;SDS011;10356;50.544;9.642;2022-09-06T08:00:07;9.07;;;4.82;;
20393;SDS011;10356;50.544;9.642;2022-09-06T08:02:35;11.50;;;5.15;;
20393;SDS011;10356;50.544;9.642;2022-09-06T08:05:02;7.75;;;4.18;;
20393;SDS011;10356;50.544;9.642;2022-09-06T08:07:28;11.25;;;4.13;;
20393;SDS011;10356;50.544;9.642;2022-09-06T08:09:55;8.00;;;3.80;;
20393;SDS011;10356;50.544;9.642;2022-09-06T08:12:21;8.75;;;4.65;;
20393;SDS011;10356;50.544;9.642;2022-09-06T08:14:50;5.32;;;3.65;;
20393;SDS011;10356;50.544;9.642;2022-09-06T08:17:17;7.82;;;3.78;;
20393;SDS011;10356;50.544;9.642;2022-09-06T08:19:44;5.47;;;3.28;;
20393;SDS011;10356;50.544;9.642;2022-09-06T08:22:10;5.93;;;3.20;;
20393;SDS011;10356;50.544;9.642;2022-09-06T08:24:37;4.80;;;3.35;;
20393;SDS011;10356;50.544;9.642;2022-09-06T08:27:03;13.77;;;3.67;;
20393;SDS011;10356;50.544;9.642;2022-09-06T08:29:31;6.53;;;3.50;;
20393;SDS011;10356;50.544;9.642;2022-09-06T08:31:59;6.47;;;3.60;;
20393;SDS011;10356;50.544;9.642;2022-09-06T08:34:26;6.78;;;3.03;;
20393;SDS011;10356;50.544;9.642;2022-09-06T08:36:53;7.18;;;3.28;;
20393;SDS011;10356;50.544;9.642;2022-09-06T08:39:19;5.03;;;2.95;;
20393;SDS011;10356;50.544;9.642;2022-09-06T08:41:47;5.45;;;2.90;;
20393;SDS011;10356;50.544;9.642;2022-09-06T08:44:17;7.50;;;3.40;;
20393;SDS011;10356;50.544;9.642;2022-09-06T08:46:51;3.60;;;2.90;;
20393;SDS011;10356;50.544;9.642;2022-09-06T08:49:24;6.70;;;3.20;;
20393;SDS011;10356;50.544;9.642;2022-09-06T08:55:00;9.23;;;3.03;;
20393;SDS011;10356;50.544;9.642;2022-09-06T08:57:47;3.22;;;2.75;;
20393;SDS011;10356;50.544;9.642;2022-09-06T09:00:21;3.00;;;2.63;;
20393;SDS011;10356;50.544;9.642;2022-09-06T09:02:49;5.05;;;3.10;;
20393;SDS011;10356;50.544;9.642;2022-09-06T09:05:22;2.75;;;2.55;;
20393;SDS011;10356;50.544;9.642;2022-09-06T09:07:55;5.93;;;2.42;;
20393;SDS011;10356;50.544;9.642;2022-09-06T09:10:29;5.55;;;2.53;;
20393;SDS011;10356;50.544;9.642;2022-09-06T09:12:57;3.90;;;2.35;;
20393;SDS011;10356;50.544;9.642;2022-09-06T09:15:28;2.78;;;2.40;;
20393;SDS011;10356;50.544;9.642;2022-09-06T09:17:54;5.38;;;2.60;;
20393;SDS011;10356;50.544;9.642;2022-09-06T09:20:22;3.38;;;2.55;;
20393;SDS011;10356;50.544;9.642;2022-09-06T09:22:49;3.97;;;2.70;;
20393;SDS011;10356;50.544;9.642;2022-09-06T09:25:18;9.25;;;2.55;;
20393;SDS011;10356;50.544;9.642;2022-09-06T09:27:47;6.03;;;2.70;;
20393;SDS011;10356;50.544;9.642;2022-09-06T09:30:21;3.38;;;2.40;;
20393;SDS011;10356;50.544;9.642;2022-09-06T09:32:48;6.53;;;2.40;;
20393;SDS011;10356;50.544;9.642;2022-09-06T09:35:16;3.35;;;2.35;;
20393;SDS011;10356;50.544;9.642;2022-09-06T09:37:46;6.95;;;2.45;;
20393;SDS011;10356;50.544;9.642;2022-09-06T09:40:26;5.38;;;2.25;;
20393;SDS011;10356;50.544;9.642;2022-09-06T09:42:55;6.20;;;2.30;;
20393;SDS011;10356;50.544;9.642;2022-09-06T09:45:34;2.58;;;2.38;;
20393;SDS011;10356;50.544;9.642;2022-09-06T09:48:04;2.80;;;2.53;;
20393;SDS011;10356;50.544;9.642;2022-09-06T09:50:44;3.10;;;1.95;;
20393;SDS011;10356;50.544;9.642;2022-09-06T09:53:12;2.78;;;2.25;;
20393;SDS011;10356;50.544;9.642;2022-09-06T09:55:41;3.70;;;2.00;;
20393;SDS011;10356;50.544;9.642;2022-09-06T09:58:16;3.65;;;2.25;;
20393;SDS011;10356;50.544;9.642;2022-09-06T10:00:45;4.43;;;2.28;;
20393;SDS011;10356;50.544;9.642;2022-09-06T10:03:12;2.67;;;2.15;;
20393;SDS011;10356;50.544;9.642;2022-09-06T10:05:40;3.75;;;2.30;;
20393;SDS011;10356;50.544;9.642;2022-09-06T10:08:09;5.50;;;2.13;;
20393;SDS011;10356;50.544;9.642;2022-09-06T10:10:40;6.60;;;2.13;;
20393;SDS011;10356;50.544;9.642;2022-09-06T10:13:22;3.63;;;1.92;;
20393;SDS011;10356;50.544;9.642;2022-09-06T10:15:50;3.60;;;2.30;;
20393;SDS011;10356;50.544;9.642;2022-09-06T10:18:27;3.28;;;2.08;;
20393;SDS011;10356;50.544;9.642;2022-09-06T10:20:56;3.05;;;2.50;;
20393;SDS011;10356;50.544;9.642;2022-09-06T10:23:28;3.78;;;2.08;;
20393;SDS011;10356;50.544;9.642;2022-09-06T10:26:07;4.63;;;1.85;;
20393;SDS011;10356;50.544;9.642;2022-09-06T10:28:38;2.88;;;2.03;;
20393;SDS011;10356;50.544;9.642;2022-09-06T10:31:09;2.83;;;1.83;;
20393;SDS011;10356;50.544;9.642;2022-09-06T10:33:55;3.65;;;2.20;;
20393;SDS011;10356;50.544;9.642;2022-09-06T10:36:30;5.05;;;2.22;;
20393;SDS011;10356;50.544;9.642;2022-09-06T10:39:01;3.13;;;1.58;;
20393;SDS011;10356;50.544;9.642;2022-09-06T10:41:37;2.58;;;1.70;;
20393;SDS011;10356;50.544;9.642;2022-09-06T10:44:20;2.42;;;1.50;;
20393;SDS011;10356;50.544;9.642;2022-09-06T10:46:57;2.03;;;1.80;;
20393;SDS011;10356;50.544;9.642;2022-09-06T10:49:27;1.55;;;1.40;;
20393;SDS011;10356;50.544;9.642;2022-09-06T10:51:55;3.17;;;1.70;;
20393;SDS011;10356;50.544;9.642;2022-09-06T10:54:25;2.05;;;1.50;;
20393;SDS011;10356;50.544;9.642;2022-09-06T10:56:56;3.60;;;1.60;;
20393;SDS011;10356;50.544;9.642;2022-09-06T10:59:28;1.70;;;1.60;;
20393;SDS011;10356;50.544;9.642;2022-09-06T11:01:59;9.20;;;2.10;;
20393;SDS011;10356;50.544;9.642;2022-09-06T11:04:36;4.32;;;1.65;;
20393;SDS011;10356;50.544;9.642;2022-09-06T11:07:06;2.35;;;1.60;;
20393;SDS011;10356;50.544;9.642;2022-09-06T11:09:42;5.78;;;1.55;;
20393;SDS011;10356;50.544;9.642;2022-09-06T11:12:13;1.38;;;1.13;;
20393;SDS011;10356;50.544;9.642;2022-09-06T11:14:46;1.27;;;1.10;;
20393;SDS011;10356;50.544;9.642;2022-09-06T11:17:13;2.33;;;1.35;;
20393;SDS011;10356;50.544;9.642;2022-09-06T11:19:53;2.33;;;1.35;;
20393;SDS011;10356;50.544;9.642;2022-09-06T11:25:42;7.65;;;5.45;;
20393;SDS011;10356;50.544;9.642;2022-09-06T11:28:21;6.05;;;5.07;;
20393;SDS011;10356;50.544;9.642;2022-09-06T11:30:55;2.83;;;1.73;;
20393;SDS011;10356;50.544;9.642;2022-09-06T11:33:24;2.33;;;1.30;;
20393;SDS011;10356;50.544;9.642;2022-09-06T11:35:53;3.85;;;1.42;;
20393;SDS011;10356;50.544;9.642;2022-09-06T11:38:41;1.92;;;1.08;;
20393;SDS011;10356;50.544;9.642;2022-09-06T11:41:12;3.53;;;1.27;;
20393;SDS011;10356;50.544;9.642;2022-09-06T11:43:42;4.43;;;1.20;;
20393;SDS011;10356;50.544;9.642;2022-09-06T11:46:26;1.48;;;1.30;;
20393;SDS011;10356;50.544;9.642;2022-09-06T11:49:28;2.30;;;1.33;;
20393;SDS011;10356;50.544;9.642;2022-09-06T11:51:57;2.35;;;1.90;;
20393;SDS011;10356;50.544;9.642;2022-09-06T11:54:25;2.95;;;1.90;;
20393;SDS011;10356;50.544;9.642;2022-09-06T11:56:57;3.50;;;1.70;;
20393;SDS011;10356;50.544;9.642;2022-09-06T11:59:28;3.10;;;1.48;;
20393;SDS011;10356;50.544;9.642;2022-09-06T12:02:02;1.40;;;1.23;;
20393;SDS011;10356;50.544;9.642;2022-09-06T12:07:35;3.47;;;1.30;;
20393;SDS011;10356;50.544;9.642;2022-09-06T12:13:05;3.25;;;1.75;;
20393;SDS011;10356;50.544;9.642;2022-09-06T12:15:59;1.88;;;1.10;;
20393;SDS011;10356;50.544;9.642;2022-09-06T12:21:36;3.13;;;1.27;;
20393;SDS011;10356;50.544;9.642;2022-09-06T12:24:08;1.55;;;1.30;;
20393;SDS011;10356;50.544;9.642;2022-09-06T12:27:12;3.70;;;1.35;;
20393;SDS011;10356;50.544;9.642;2022-09-06T12:29:51;1.80;;;1.27;;
20393;SDS011;10356;50.544;9.642;2022-09-06T12:32:21;2.90;;;1.20;;
20393;SDS011;10356;50.544;9.642;2022-09-06T12:34:53;3.50;;;2.20;;
20393;SDS011;10356;50.544;9.642;2022-09-06T12:37:31;2.55;;;1.13;;
20393;SDS011;10356;50.544;9.642;2022-09-06T12:40:01;1.83;;;1.20;;
20393;SDS011;10356;50.544;9.642;2022-09-06T12:42:31;1.95;;;1.20;;
20393;SDS011;10356;50.544;9.642;2022-09-06T12:45:02;1.73;;;1.58;;
20393;SDS011;10356;50.544;9.642;2022-09-06T12:47:31;1.27;;;1.17;;
20393;SDS011;10356;50.544;9.642;2022-09-06T12:50:05;1.17;;;1.08;;
20393;SDS011;10356;50.544;9.642;2022-09-06T12:52:41;2.33;;;0.90;;
20393;SDS011;10356;50.544;9.642;2022-09-06T12:55:12;2.30;;;1.10;;
20393;SDS011;10356;50.544;9.642;2022-09-06T12:57:45;2.15;;;1.23;;
20393;SDS011;10356;50.544;9.642;2022-09-06T13:00:12;10.77;;;7.50;;
20393;SDS011;10356;50.544;9.642;2022-09-06T13:02:42;5.50;;;3.83;;
20393;SDS011;10356;50.544;9.642;2022-09-06T13:05:20;5.38;;;1.20;;
20393;SDS011;10356;50.544;9.642;2022-09-06T13:07:48;2.42;;;1.65;;
20393;SDS011;10356;50.544;9.642;2022-09-06T13:10:18;3.13;;;1.30;;
20393;SDS011;10356;50.544;9.642;2022-09-06T13:12:49;3.13;;;1.30;;
20393;SDS011;10356;50.544;9.642;2022-09-06T13:15:17;4.55;;;1.50;;
20393;SDS011;10356;50.544;9.642;2022-09-06T13:17:45;2.90;;;2.00;;
20393;SDS011;10356;50.544;9.642;2022-09-06T13:20:13;4.30;;;1.20;;
20393;SDS011;10356;50.544;9.642;2022-09-06T13:22:49;3.70;;;1.15;;
20393;SDS011;10356;50.544;9.642;2022-09-06T13:25:21;2.90;;;0.90;;
20393;SDS011;10356;50.544;9.642;2022-09-06T13:27:50;2.85;;;1.25;;
20393;SDS011;10356;50.544;9.642;2022-09-06T13:33:20;2.20;;;1.95;;
20393;SDS011;10356;50.544;9.642;2022-09-06T13:35:50;3.10;;;1.27;;
20393;SDS011;10356;50.544;9.642;2022-09-06T13:38:32;3.42;;;1.52;;
20393;SDS011;10356;50.544;9.642;2022-09-06T13:41:03;2.83;;;1.20;;
20393;SDS011;10356;50.544;9.642;2022-09-06T13:43:38;3.65;;;1.20;;
20393;SDS011;10356;50.544;9.642;2022-09-06T13:46:08;3.92;;;1.25;;
20393;SDS011;10356;50.544;9.642;2022-09-06T13:48:36;2.58;;;1.40;;
20393;SDS011;10356;50.544;9.642;2022-09-06T13:51:04;3.83;;;1.25;;
20393;SDS011;10356;50.544;9.642;2022-09-06T13:53:33;3.10;;;1.13;;
20393;SDS011;10356;50.544;9.642;2022-09-06T13:56:00;4.18;;;2.20;;
20393;SDS011;10356;50.544;9.642;2022-09-06T13:58:26;2.50;;;1.20;;
20393;SDS011;10356;50.544;9.642;2022-09-06T14:00:53;2.78;;;1.15;;
20393;SDS011;10356;50.544;9.642;2022-09-06T14:03:21;4.93;;;1.40;;
20393;SDS011;10356;50.544;9.642;2022-09-06T14:05:50;4.97;;;1.13;;
20393;SDS011;10356;50.544;9.642;2022-09-06T14:08:17;1.83;;;1.27;;
20393;SDS011;10356;50.544;9.642;2022-09-06T14:10:45;1.80;;;1.20;;
20393;SDS011;10356;50.544;9.642;2022-09-06T14:13:12;1.88;;;1.02;;
20393;SDS011;10356;50.544;9.642;2022-09-06T14:15:39;2.97;;;1.27;;
20393;SDS011;10356;50.544;9.642;2022-09-06T14:18:06;3.05;;;1.30;;
20393;SDS011;10356;50.544;9.642;2022-09-06T14:20:33;3.38;;;1.10;;
20393;SDS011;10356;50.544;9.642;2022-09-06T14:23:00;5.72;;;1.30;;
20393;SDS011;10356;50.544;9.642;2022-09-06T14:25:26;4.20;;;1.35;;
20393;SDS011;10356;50.544;9.642;2022-09-06T14:27:55;5.43;;;2.00;;
20393;SDS011;10356;50.544;9.642;2022-09-06T14:30:21;3.97;;;1.40;;
20393;SDS011;10356;50.544;9.642;2022-09-06T14:32:48;1.83;;;1.20;;
20393;SDS011;10356;50.544;9.642;2022-09-06T14:35:14;4.20;;;1.33;;
20393;SDS011;10356;50.544;9.642;2022-09-06T14:37:41;3.20;;;1.27;;
20393;SDS011;10356;50.544;9.642;2022-09-06T14:40:08;3.47;;;1.30;;
20393;SDS011;10356;50.544;9.642;2022-09-06T14:42:35;1.92;;;1.13;;
20393;SDS011;10356;50.544;9.642;2022-09-06T14:45:04;4.15;;;1.30;;
20393;SDS011;10356;50.544;9.642;2022-09-06T14:47:31;5.35;;;1.27;;
20393;SDS011;10356;50.544;9.642;2022-09-06T14:49:57;4.32;;;1.30;;
20393;SDS011;10356;50.544;9.642;2022-09-06T14:52:24;5.22;;;1.13;;
20393;SDS011;10356;50.544;9.642;2022-09-06T14:54:51;4.00;;;1.17;;
20393;SDS011;10356;50.544;9.642;2022-09-06T14:57:17;2.70;;;1.25;;
20393;SDS011;10356;50.544;9.642;2022-09-06T14:59:44;1.95;;;1.25;;
20393;SDS011;10356;50.544;9.642;2022-09-06T15:02:12;4.25;;;1.20;;
20393;SDS011;10356;50.544;9.642;2022-09-06T15:04:39;4.65;;;1.10;;
20393;SDS011;10356;50.544;9.642;2022-09-06T15:07:05;4.25;;;1.20;;
20393;SDS011;10356;50.544;9.642;2022-09-06T15:09:32;6.53;;;1.50;;
20393;SDS011;10356;50.544;9.642;2022-09-06T15:11:59;3.15;;;1.10;;
20393;SDS011;10356;50.544;9.642;2022-09-06T15:14:26;1.52;;;1.20;;
20393;SDS011;10356;50.544;9.642;2022-09-06T15:16:54;2.70;;;1.20;;
20393;SDS011;10356;50.544;9.642;2022-09-06T15:19:25;7.93;;;1.52;;
20393;SDS011;10356;50.544;9.642;2022-09-06T15:21:53;1.52;;;1.20;;